KCRP/CRP METAR and TAF weather

Enter ICAO airport designator
Station Type Date Time Source
KCRP METAR 2019/10/19 07:51 UTC NOAA

KCRP 190751Z 16007KT 10SM FEW021 23/21 A2972 RMK AO2 SLP062 T02330211


Station Type Date Time Source
KCRP Decoded METAR 2019/10/19 07:51 UTC NOAA

CORPUS CHRISTI INTERNATIONAL , TX, United States (KCRP) 27-46N 97-31W 16M
Oct 19, 2019 - 03:51 AM EDT / 2019.10.19 0751 UTC
Wind: from the SSE (160 degrees) at 8 MPH (7 KT):0
Visibility: 10 mile(s):0
Sky conditions: mostly clear
Temperature: 73.9 F (23.3 C)
Dew Point: 70.0 F (21.1 C)
Relative Humidity: 87%
Pressure (altimeter): 29.72 in. Hg (1006 hPa)
ob: KCRP 190751Z 16007KT 10SM FEW021 23/21 A2972 RMK AO2 SLP062 T02330211
cycle: 8

Station Type Date Time Source
KCRP TAF 2019/10/19 06:40 UTC NOAA

TAF KCRP 190538Z 1906/2006 13005KT P6SM SCT015
TEMPO 1906/1908 BKN015
FM190800 17004KT P6SM SCT008 BKN012
TEMPO 1911/1913 5SM BR BKN008 OVC012
FM191600 18007KT P6SM BKN025 OVC100
FM192000 14010KT P6SM SCT035 BKN150
FM200300 12012KT P6SM SCT025 BKN200
TEMPO 2003/2006 BKN025 OVC200

Example: see airport list